This is the latest recevied weather packets stored in our database for station/object DL2BWO-13. If no packets are shown the sender has not sent any weather packets the latest 10 day(s).
| Time | Temp. | Humidity | Pressure | Rain* | Wind** | Luminosity | Snow |
|---|---|---|---|---|---|---|---|
| 1777728402 | 31.11° C | 37% | 760.4 hPa | 0 mm | - | - | - |
| 1777726530 | 30.56° C | 38% | 760 hPa | 0 mm | - | - | - |
| 1777725594 | 29.44° C | 40% | 758.8 hPa | 0 mm | - | - | - |
| 1777724658 | 29.44° C | 39% | 758.7 hPa | 0 mm | - | - | - |
| 1777722786 | 28.89° C | 42% | 758.1 hPa | 0 mm | - | - | - |
| 1777721850 | 28.33° C | 41% | 757.6 hPa | 0 mm | - | - | - |
| 1777720914 | 28.33° C | 42% | 757.5 hPa | 0 mm | - | - | - |
| 1777718106 | 27.78° C | 43% | 756.9 hPa | 0 mm | - | - | - |
| 1777717170 | 27.22° C | 44% | 756.1 hPa | 0 mm | - | - | - |
| 1777716234 | 26.67° C | 44% | 755.5 hPa | 0 mm | - | - | - |
| 1777715298 | 26.11° C | 44% | 754.9 hPa | 0 mm | - | - | - |
| 1777714362 | 25.56° C | 45% | 754.4 hPa | 0 mm | - | - | - |
| 1777713427 | 25.56° C | 47% | 754.2 hPa | 0 mm | - | - | - |
| 1777710619 | 23.89° C | 51% | 752.5 hPa | 0 mm | - | - | - |
| 1777709683 | 22.78° C | 52% | 751.4 hPa | 0 mm | - | - | - |
| 1777708747 | 22.22° C | 54% | 750.8 hPa | 0 mm | - | - | - |
| 1777707811 | 21.11° C | 55% | 749.7 hPa | 0 mm | - | - | - |
| 1777706875 | 20.56° C | 58% | 748.8 hPa | 0 mm | - | - | - |
| 1777705939 | 20° C | 60% | 748 hPa | 0 mm | - | - | - |
| 1777705003 | 18.89° C | 63% | 746.6 hPa | 0 mm | - | - | - |
| 1777703131 | 16.67° C | 68% | 744.3 hPa | 0 mm | - | - | - |
| 1777702195 | 15.56° C | 70% | 743.3 hPa | 0 mm | - | - | - |
| 1777700323 | 13.33° C | 81% | 740.5 hPa | 0 mm | - | - | - |
| 1777699387 | 11.67° C | 86% | 739 hPa | 0 mm | - | - | - |
| 1777698451 | 10.56° C | 91% | 737.2 hPa | 0 mm | - | - | - |
* Rain latest hour (hover to see other rain measurements)
** Current wind speed in m/s (hover to see current wind gust speed)